Time;durP1;ratioP1;P1;durP2;ratioP2;P2;SDS_P1;SDS_P2;PMS_P1;PMS_P2;Temp;Humidity;BMP_temperature;BMP_pressure;BME280_temperature;BME280_humidity;BME280_pressure;Samples;Min_cycle;Max_cycle;Signal;HPM_P1;HPM_P2
2022/08/08 00:00:25;;;;;;;0.80;0.80;;;;;;;16.79;38.72;96033.97;5047324;28;20213;-84
2022/08/08 00:03:11;;;;;;;0.85;0.85;;;;;;;16.70;38.85;96037.63;5047078;28;20187;-84
2022/08/08 00:05:40;;;;;;;1.48;1.00;;;;;;;16.65;38.82;96035.47;5022336;28;20183;-82
2022/08/08 00:08:14;;;;;;;0.65;0.65;;;;;;;16.61;39.57;96039.44;5024084;28;20180;-82
2022/08/08 00:10:59;;;;;;;1.58;0.75;;;;;;;16.55;39.23;96053.22;5035801;28;20184;-82
2022/08/08 00:13:38;;;;;;;1.25;0.98;;;;;;;16.55;39.15;96049.78;5021031;28;20215;-82
2022/08/08 00:16:06;;;;;;;0.70;0.70;;;;;;;16.55;39.62;96040.13;5017721;28;20557;-82
2022/08/08 00:19:00;;;;;;;1.10;0.85;;;;;;;16.50;39.77;96039.81;5021254;28;20189;-82
2022/08/08 00:21:40;;;;;;;10.00;1.27;;;;;;;16.44;39.48;96040.53;5012392;28;20215;-82
2022/08/08 00:24:14;;;;;;;1.00;0.77;;;;;;;16.41;39.76;96040.84;5018179;28;20199;-82
2022/08/08 00:26:42;;;;;;;0.75;0.60;;;;;;;16.34;39.83;96039.88;5020642;28;20191;-82
2022/08/08 00:29:11;;;;;;;1.50;0.80;;;;;;;16.36;39.44;96037.94;4998218;28;20183;-82
2022/08/08 00:31:40;;;;;;;0.80;0.80;;;;;;;16.33;40.00;96036.44;5018853;28;20654;-82
2022/08/08 00:37:27;;;;;;;1.48;0.75;;;;;;;16.24;39.95;96036.66;5036406;28;20678;-82
2022/08/08 00:40:13;;;;;;;1.48;1.00;;;;;;;16.20;40.12;96043.25;5018532;28;20202;-83
2022/08/08 00:42:57;;;;;;;3.22;0.90;;;;;;;16.13;40.08;96043.09;5020963;28;20179;-83
2022/08/08 00:45:34;;;;;;;1.77;0.90;;;;;;;16.07;40.66;96041.16;5021206;28;20594;-83
2022/08/08 00:48:27;;;;;;;1.65;1.00;;;;;;;16.06;40.80;96048.19;5024051;28;20183;-82
2022/08/08 00:50:58;;;;;;;0.95;0.82;;;;;;;15.98;41.17;96044.78;5011649;28;20285;-84
2022/08/08 00:53:41;;;;;;;1.75;0.70;;;;;;;15.94;41.25;96044.31;5022148;28;20234;-84
2022/08/08 00:56:25;;;;;;;1.25;0.63;;;;;;;15.89;41.22;96043.19;5020735;28;20285;-83
2022/08/08 00:59:29;;;;;;;1.88;0.70;;;;;;;15.82;41.60;96041.25;5022760;28;20226;-83
2022/08/08 01:02:35;;;;;;;1.08;0.70;;;;;;;15.71;42.17;96046.00;5021134;28;20276;-82
2022/08/08 01:05:31;;;;;;;1.67;0.80;;;;;;;15.71;41.57;96046.00;5033273;28;20215;-83
2022/08/08 01:08:27;;;;;;;1.13;0.80;;;;;;;15.64;42.07;96039.81;5021879;28;20240;-82
2022/08/08 01:11:30;;;;;;;1.88;0.90;;;;;;;15.59;41.81;96048.13;5023992;28;20190;-82
2022/08/08 01:14:07;;;;;;;1.17;0.82;;;;;;;15.54;41.99;96039.94;5021960;28;20267;-82
2022/08/08 01:16:35;;;;;;;1.20;0.80;;;;;;;15.46;41.96;96046.03;5020005;28;20195;-83
2022/08/08 01:19:24;;;;;;;0.95;0.68;;;;;;;15.47;41.82;96050.28;5021040;28;20205;-82
2022/08/08 01:22:07;;;;;;;1.40;0.77;;;;;;;15.47;41.86;96042.44;5039175;28;20199;-82
2022/08/08 01:24:42;;;;;;;1.77;0.93;;;;;;;15.50;41.55;96038.66;5022769;28;20210;-82
2022/08/08 01:27:22;;;;;;;1.35;0.68;;;;;;;15.55;40.99;96039.00;5021292;28;20185;-82
2022/08/08 01:30:06;;;;;;;0.80;0.80;;;;;;;15.54;41.69;96035.53;5019423;28;20241;-82
2022/08/08 01:33:02;;;;;;;1.05;0.98;;;;;;;15.53;41.07;96046.97;5018940;28;20218;-82
2022/08/08 01:36:02;;;;;;;1.17;0.80;;;;;;;15.55;41.11;96039.81;5037424;28;20221;-82
2022/08/08 01:38:59;;;;;;;1.73;0.80;;;;;;;15.58;41.05;96036.03;5033580;28;20195;-82
2022/08/08 01:41:31;;;;;;;0.95;0.80;;;;;;;15.59;40.79;96035.84;5037721;28;20800;-82
2022/08/08 01:44:33;;;;;;;0.85;0.85;;;;;;;15.60;40.80;96034.06;5021263;28;20207;-83
2022/08/08 01:47:42;;;;;;;1.42;0.75;;;;;;;15.59;41.36;96040.28;5022710;28;20174;-82
2022/08/08 01:50:22;;;;;;;1.02;0.60;;;;;;;15.54;41.61;96034.72;5022249;28;20225;-82
2022/08/08 01:52:58;;;;;;;0.77;0.77;;;;;;;15.47;41.49;96036.38;5022890;28;20178;-83
2022/08/08 01:55:48;;;;;;;1.15;0.82;;;;;;;15.41;41.56;96043.09;5039525;28;20635;-82
2022/08/08 01:58:27;;;;;;;1.00;0.93;;;;;;;15.34;41.73;96034.25;5036456;28;20197;-82
2022/08/08 02:01:22;;;;;;;0.85;0.77;;;;;;;15.31;41.89;96037.22;5018260;28;20198;-83
2022/08/08 02:04:26;;;;;;;0.57;0.57;;;;;;;15.23;42.12;96030.19;4994372;28;20226;-82
2022/08/08 02:06:56;;;;;;;1.00;0.70;;;;;;;15.16;42.12;96029.19;5002120;28;20221;-82
2022/08/08 02:09:49;;;;;;;0.70;0.70;;;;;;;15.18;41.99;96029.84;4969307;28;20191;-82
2022/08/08 02:12:21;;;;;;;1.15;0.70;;;;;;;15.23;41.75;96026.75;4982457;28;20187;-82
2022/08/08 02:14:58;;;;;;;0.90;0.90;;;;;;;15.21;41.87;96026.09;4981514;28;20245;-82
2022/08/08 02:17:54;;;;;;;1.92;0.80;;;;;;;15.18;42.26;96029.84;4983348;28;20187;-82
2022/08/08 02:20:27;;;;;;;0.80;0.80;;;;;;;15.08;42.63;96023.16;4994474;28;20397;-82
2022/08/08 02:23:21;;;;;;;1.17;1.00;;;;;;;15.00;42.70;96024.78;4983320;28;20195;-82
2022/08/08 02:26:17;;;;;;;1.90;0.90;;;;;;;14.94;43.07;96027.25;4992431;28;20234;-82
2022/08/08 02:28:59;;;;;;;2.20;0.88;;;;;;;14.88;43.39;96026.09;4915509;29;20726;-84
2022/08/08 02:31:27;;;;;;;0.70;0.70;;;;;;;14.86;43.32;96035.09;4912898;29;20241;-82
2022/08/08 02:34:05;;;;;;;1.38;0.90;;;;;;;14.80;43.38;96033.94;4931393;29;20726;-82
2022/08/08 02:36:39;;;;;;;0.98;0.88;;;;;;;14.79;43.17;96032.28;4913787;29;20199;-82
2022/08/08 02:39:35;;;;;;;1.48;0.80;;;;;;;14.78;43.31;96025.44;4915510;29;20216;-82
2022/08/08 02:42:42;;;;;;;0.75;0.73;;;;;;;14.71;43.53;96027.06;4940452;29;20244;-82
2022/08/08 02:45:22;;;;;;;0.88;0.80;;;;;;;14.71;43.62;96024.44;4939298;29;20233;-82
2022/08/08 02:48:25;;;;;;;1.13;1.00;;;;;;;14.68;43.47;96022.16;4940301;29;20194;-82
2022/08/08 02:51:11;;;;;;;1.80;1.02;;;;;;;14.60;44.23;96027.38;4944606;28;20273;-82
2022/08/08 02:53:56;;;;;;;2.67;1.30;;;;;;;14.56;44.10;96036.50;4930169;29;20213;-82
2022/08/08 02:56:37;;;;;;;1.48;1.20;;;;;;;14.50;44.53;96031.91;4930816;29;20193;-82
2022/08/08 02:59:52;;;;;;;2.58;1.00;;;;;;;14.43;45.19;96032.53;4945957;29;20213;-82
2022/08/08 03:02:54;;;;;;;1.45;1.00;;;;;;;14.40;45.15;96030.22;4944779;29;20212;-82
2022/08/08 03:05:27;;;;;;;0.75;0.75;;;;;;;14.45;44.62;96029.78;4988048;28;20199;-81
2022/08/08 03:08:21;;;;;;;1.45;0.93;;;;;;;14.47;44.41;96029.59;5022462;28;20253;-81
2022/08/08 03:11:23;;;;;;;0.75;0.73;;;;;;;14.54;44.12;96023.59;5020347;28;20190;-82
2022/08/08 03:14:03;;;;;;;0.88;0.77;;;;;;;14.57;44.14;96023.25;5021486;28;20260;-82
2022/08/08 03:16:48;;;;;;;1.33;0.77;;;;;;;14.60;43.90;96035.22;5022953;28;20639;-82
2022/08/08 03:19:26;;;;;;;2.05;1.00;;;;;;;14.53;44.36;96036.81;5019957;28;20631;-82
2022/08/08 03:21:51;;;;;;;2.63;0.95;;;;;;;14.60;44.25;96037.81;5022304;28;20272;-82
2022/08/08 03:24:18;;;;;;;1.77;0.75;;;;;;;14.52;44.36;96040.41;5023254;28;20675;-82
2022/08/08 03:26:48;;;;;;;2.20;1.00;;;;;;;14.41;44.77;96039.72;5024543;28;20182;-82
2022/08/08 03:29:19;;;;;;;1.25;0.90;;;;;;;14.34;44.85;96030.88;5032840;28;20565;-82
2022/08/08 03:34:31;;;;;;;1.50;0.88;;;;;;;14.30;45.33;96024.31;5020382;28;20756;-82
2022/08/08 03:36:57;;;;;;;1.23;1.00;;;;;;;14.27;45.57;96031.66;5024134;28;20182;-83
2022/08/08 03:39:22;;;;;;;2.22;0.85;;;;;;;14.31;45.31;96033.81;5041530;28;20209;-82
2022/08/08 03:41:47;;;;;;;1.23;0.82;;;;;;;14.26;45.27;96036.06;5021727;28;20246;-82
2022/08/08 03:44:13;;;;;;;1.02;0.82;;;;;;;14.26;45.03;96030.84;5022857;28;20264;-82
2022/08/08 03:46:56;;;;;;;1.50;0.80;;;;;;;14.23;45.68;96036.38;5040063;28;20239;-82
2022/08/08 03:49:25;;;;;;;2.70;1.00;;;;;;;14.24;45.23;96038.03;5021587;28;20240;-82
2022/08/08 03:51:52;;;;;;;1.23;0.90;;;;;;;14.24;45.36;96034.59;5019087;28;20625;-81
2022/08/08 03:54:18;;;;;;;1.88;1.05;;;;;;;14.34;44.92;96041.31;5022979;28;20242;-82
2022/08/08 03:56:43;;;;;;;1.13;1.02;;;;;;;14.29;45.07;96037.53;5023686;28;20186;-82
2022/08/08 03:59:09;;;;;;;1.52;1.00;;;;;;;14.26;45.64;96043.91;5022002;28;20547;-82
2022/08/08 04:01:36;;;;;;;1.55;0.90;;;;;;;14.25;45.43;96044.06;5022719;28;20592;-82
2022/08/08 04:04:01;;;;;;;1.65;1.10;;;;;;;14.27;45.01;96042.91;5015438;28;20698;-82
2022/08/08 04:06:27;;;;;;;2.45;1.05;;;;;;;14.28;45.10;96038.50;5023063;28;20264;-83
2022/08/08 04:08:53;;;;;;;1.92;1.00;;;;;;;14.25;44.97;96039.66;5023035;28;20686;-84
2022/08/08 04:11:18;;;;;;;1.10;0.77;;;;;;;14.27;45.09;96045.53;5019972;28;20222;-83
2022/08/08 04:13:43;;;;;;;5.00;0.90;;;;;;;14.27;45.34;96045.53;5039618;28;20232;-83
2022/08/08 04:16:09;;;;;;;1.10;1.00;;;;;;;14.30;45.28;96047.81;5004353;28;20179;-83
2022/08/08 04:18:34;;;;;;;1.38;0.90;;;;;;;14.34;44.97;96054.38;5023258;28;20777;-83
2022/08/08 04:20:59;;;;;;;1.52;0.90;;;;;;;14.41;44.96;96065.03;5031968;28;20222;-83
2022/08/08 04:23:25;;;;;;;0.80;0.80;;;;;;;14.44;45.58;96055.06;5024860;28;20674;-82
2022/08/08 04:25:50;;;;;;;1.52;1.27;;;;;;;14.44;45.75;96059.47;5025871;28;20225;-83
2022/08/08 04:28:15;;;;;;;1.67;0.85;;;;;;;14.47;45.51;96061.78;5027971;28;20195;-84
2022/08/08 04:30:41;;;;;;;2.08;0.85;;;;;;;14.52;45.07;96059.53;5025224;28;20696;-83
2022/08/08 04:33:06;;;;;;;0.95;0.80;;;;;;;14.55;45.39;96063.59;5022053;28;20210;-83
2022/08/08 04:35:32;;;;;;;0.98;0.80;;;;;;;14.49;46.28;96067.69;5021201;28;20309;-84
2022/08/08 04:37:58;;;;;;;1.38;0.80;;;;;;;14.62;45.62;96069.84;5023061;28;20187;-84
2022/08/08 04:40:23;;;;;;;1.50;1.10;;;;;;;14.61;45.18;96070.81;5021889;28;20198;-84
2022/08/08 04:42:50;;;;;;;2.22;1.10;;;;;;;14.71;45.01;96074.09;5025549;28;20246;-84
2022/08/08 04:45:15;;;;;;;0.85;0.85;;;;;;;14.76;45.12;96079.69;5020029;28;20691;-84
2022/08/08 04:47:40;;;;;;;1.13;0.90;;;;;;;14.85;44.91;96078.72;5024294;28;20252;-84
2022/08/08 04:50:06;;;;;;;1.33;0.90;;;;;;;14.93;44.61;96081.34;5022807;28;20651;-84
2022/08/08 04:52:32;;;;;;;2.40;0.93;;;;;;;15.05;43.99;96083.66;5022266;28;20187;-84
2022/08/08 04:54:57;;;;;;;1.08;0.80;;;;;;;15.15;43.88;96084.31;5023717;28;20245;-84
2022/08/08 04:57:22;;;;;;;1.10;1.00;;;;;;;15.25;43.81;96077.91;5038649;28;20187;-84
2022/08/08 04:59:48;;;;;;;1.05;0.90;;;;;;;15.50;43.32;96086.59;5024539;28;20218;-83
2022/08/08 05:02:13;;;;;;;1.05;0.90;;;;;;;17.50;40.16;96087.06;5021376;28;20633;-83
2022/08/08 05:04:39;;;;;;;3.25;0.82;;;;;;;20.16;35.25;96097.00;5021675;28;20297;-83
2022/08/08 05:07:05;;;;;;;1.75;1.20;;;;;;;22.33;30.18;96107.22;5030294;28;20278;-84
2022/08/08 05:09:30;;;;;;;0.95;0.90;;;;;;;24.24;27.91;96109.78;5020963;28;20281;-84
2022/08/08 05:11:55;;;;;;;1.67;1.08;;;;;;;24.41;27.76;96112.72;5040122;28;20176;-84
2022/08/08 05:14:21;;;;;;;0.80;0.80;;;;;;;25.02;26.08;96111.81;5037399;28;20203;-82
2022/08/08 05:16:46;;;;;;;2.38;0.82;;;;;;;26.18;24.51;96121.13;5021091;28;20180;-82
2022/08/08 05:19:12;;;;;;;2.03;0.73;;;;;;;25.79;24.72;96119.91;5024940;28;20189;-85
2022/08/08 05:21:39;;;;;;;2.53;0.80;;;;;;;26.30;24.03;96121.13;5037822;28;20299;-82
2022/08/08 05:24:05;;;;;;;1.83;1.00;;;;;;;25.37;25.79;96125.25;5020545;28;20207;-82
2022/08/08 05:26:30;;;;;;;1.92;0.90;;;;;;;24.25;27.40;96115.91;5037815;28;20232;-82
2022/08/08 05:28:56;;;;;;;1.98;0.80;;;;;;;24.39;27.29;96120.09;5021838;28;20183;-85
2022/08/08 05:31:21;;;;;;;1.60;0.98;;;;;;;24.69;26.20;96124.66;5023735;28;20197;-82
2022/08/08 05:33:46;;;;;;;2.25;0.93;;;;;;;23.61;27.23;96127.69;5021240;28;20205;-83
2022/08/08 05:36:14;;;;;;;1.77;0.90;;;;;;;;;;5036463;28;20183;-82
2022/08/08 05:38:46;;;;;;;0.88;0.85;;;;;;;21.62;30.55;96130.03;5022439;28;20202;-83
2022/08/08 05:41:13;;;;;;;1.05;0.88;;;;;;;20.97;31.65;96129.66;5022798;28;20217;-83
2022/08/08 05:43:43;;;;;;;2.25;0.90;;;;;;;20.81;31.58;96133.47;5038180;28;20233;-83
2022/08/08 05:46:09;;;;;;;1.15;0.77;;;;;;;20.20;32.72;96132.50;5040122;28;20163;-82
2022/08/08 05:48:34;;;;;;;1.00;0.80;;;;;;;20.36;33.56;96130.38;5050472;28;20209;-83
2022/08/08 05:50:59;;;;;;;2.20;0.90;;;;;;;20.19;32.72;96125.59;5046947;28;20242;-83
2022/08/08 05:53:25;;;;;;;0.93;0.90;;;;;;;20.21;32.70;96134.13;5044592;28;20221;-82
2022/08/08 05:55:55;;;;;;;1.35;0.80;;;;;;;20.04;33.44;96134.41;5047825;28;20166;-82
2022/08/08 05:58:27;;;;;;;1.17;0.95;;;;;;;20.42;33.50;96123.53;5031199;28;20188;-82
2022/08/08 06:00:54;;;;;;;1.25;1.10;;;;;;;21.10;32.22;96140.25;5003961;28;20214;-82
2022/08/08 06:03:22;;;;;;;0.80;0.80;;;;;;;23.20;28.72;96136.84;5020893;28;20641;-82
2022/08/08 06:05:50;;;;;;;1.10;0.82;;;;;;;25.12;25.79;96146.63;5029212;28;20712;-82
2022/08/08 06:08:22;;;;;;;2.53;0.90;;;;;;;26.46;24.88;96147.06;5019297;28;20207;-82
2022/08/08 06:10:48;;;;;;;0.73;0.73;;;;;;;28.38;22.30;96158.97;5020500;28;20210;-83
2022/08/08 06:13:14;;;;;;;0.88;0.88;;;;;;;28.02;22.66;96154.91;5015210;28;20227;-82
2022/08/08 06:15:42;;;;;;;2.03;0.90;;;;;;;29.40;21.25;96160.25;5021053;28;20177;-83
2022/08/08 06:18:07;;;;;;;1.90;0.85;;;;;;;29.66;21.72;96165.91;5021814;28;20261;-83
2022/08/08 06:20:33;;;;;;;2.00;1.13;;;;;;;29.32;22.19;96166.06;5020037;28;20260;-83
2022/08/08 06:22:58;;;;;;;1.10;0.90;;;;;;;31.36;20.15;96164.91;5021831;28;20193;-82
2022/08/08 06:25:24;;;;;;;1.63;1.33;;;;;;;30.99;20.29;96171.19;5023887;28;20178;-82
2022/08/08 06:27:55;;;;;;;2.83;1.08;;;;;;;29.88;21.92;96172.00;5020897;28;20193;-83
2022/08/08 06:30:21;;;;;;;1.75;1.13;;;;;;;32.84;18.72;96182.75;5024548;28;20191;-83
2022/08/08 06:32:52;;;;;;;2.67;1.20;;;;;;;31.16;20.21;96182.53;5022670;28;20195;-83
2022/08/08 06:35:18;;;;;;;1.42;1.23;;;;;;;33.12;18.37;96185.88;5023918;28;20733;-83
2022/08/08 06:37:57;;;;;;;1.52;0.90;;;;;;;33.10;19.18;96185.34;5041375;28;20673;-83
2022/08/08 06:40:24;;;;;;;2.05;1.35;;;;;;;31.36;20.67;96189.88;5038060;28;20273;-83
2022/08/08 06:42:54;;;;;;;1.92;1.17;;;;;;;32.58;19.69;96186.53;5022636;28;20731;-83
2022/08/08 06:45:23;;;;;;;3.90;1.25;;;;;;;32.27;20.63;96186.56;5015798;28;20206;-83
2022/08/08 06:47:49;;;;;;;2.47;1.20;;;;;;;33.35;19.72;96195.22;5027333;28;20268;-83
2022/08/08 06:50:15;;;;;;;1.40;1.20;;;;;;;33.14;19.97;96192.63;5025311;28;20209;-83
2022/08/08 06:52:41;;;;;;;3.00;1.30;;;;;;;34.38;18.63;96194.31;5017529;28;20558;-83
2022/08/08 06:55:07;;;;;;;1.75;1.65;;;;;;;32.77;20.51;96192.13;5032910;28;20202;-82
2022/08/08 06:57:33;;;;;;;2.67;1.25;;;;;;;32.83;20.37;96199.94;5026831;28;20194;-82
2022/08/08 06:59:59;;;;;;;2.22;1.50;;;;;;;32.55;20.72;96198.66;5024018;28;20597;-83
2022/08/08 07:02:27;;;;;;;1.65;1.23;;;;;;;30.93;21.49;96194.50;5025268;28;20221;-83
2022/08/08 07:04:54;;;;;;;2.30;1.20;;;;;;;31.36;21.34;96195.22;5005029;28;20242;-83
2022/08/08 07:07:35;;;;;;;1.83;1.17;;;;;;;31.51;21.41;96199.84;5024970;28;20182;-83
2022/08/08 07:10:04;;;;;;;2.50;1.38;;;;;;;31.37;20.89;96198.75;5019208;28;20270;-82
2022/08/08 07:12:44;;;;;;;2.97;1.05;;;;;;;31.43;21.37;96200.34;5022379;28;20582;-82
2022/08/08 07:15:12;;;;;;;1.70;1.17;;;;;;;30.26;22.60;96199.66;5037177;28;20638;-83
2022/08/08 07:17:48;;;;;;;1.30;1.20;;;;;;;30.37;22.48;96199.47;5021628;28;20183;-83
2022/08/08 07:20:17;;;;;;;1.30;1.20;;;;;;;30.52;22.43;96209.50;5023732;28;20206;-83
2022/08/08 07:23:01;;;;;;;1.33;1.10;;;;;;;31.00;21.56;96204.97;5041273;28;20634;-82
2022/08/08 07:25:30;;;;;;;3.42;1.15;;;;;;;30.98;21.67;96201.75;5025198;28;20185;-82
2022/08/08 07:28:04;;;;;;;1.30;1.10;;;;;;;31.50;21.45;96206.28;5030909;28;20190;-82
2022/08/08 07:30:29;;;;;;;2.92;1.20;;;;;;;31.60;21.33;96209.00;5023054;28;20205;-83
2022/08/08 07:32:55;;;;;;;1.85;1.13;;;;;;;31.23;22.15;96207.28;5025079;28;20670;-83
2022/08/08 07:35:20;;;;;;;2.97;1.40;;;;;;;29.15;24.85;96206.25;5024602;28;20182;-82
2022/08/08 07:37:46;;;;;;;3.28;1.50;;;;;;;29.78;24.21;96204.84;5020828;28;20719;-83
2022/08/08 07:40:12;;;;;;;1.30;1.20;;;;;;;29.30;24.61;96211.78;5023884;28;20202;-83
2022/08/08 07:42:38;;;;;;;3.42;1.65;;;;;;;29.34;25.59;96220.13;5024596;28;20210;-83
2022/08/08 07:45:03;;;;;;;2.50;1.75;;;;;;;28.75;26.52;96217.19;5021087;28;20693;-83
2022/08/08 07:47:29;;;;;;;3.72;1.55;;;;;;;27.71;27.32;96212.28;5024557;28;20198;-83
2022/08/08 07:49:55;;;;;;;2.13;1.90;;;;;;;27.60;28.53;96205.13;5024530;28;20694;-83
2022/08/08 07:52:21;;;;;;;3.17;2.10;;;;;;;26.81;29.75;96204.84;5022824;28;20187;-83
2022/08/08 07:55:06;;;;;;;3.05;2.08;;;;;;;26.15;31.43;96214.75;5039944;28;20209;-83
2022/08/08 07:58:03;;;;;;;3.65;2.20;;;;;;;25.48;33.07;96219.38;5019738;28;20187;-83
2022/08/08 08:00:35;;;;;;;1.85;1.75;;;;;;;25.40;32.57;96222.34;5022662;28;20179;-82
2022/08/08 08:03:06;;;;;;;2.80;1.80;;;;;;;25.06;33.10;96213.94;5003034;28;20560;-83
2022/08/08 08:05:36;;;;;;;2.22;2.03;;;;;;;24.65;33.89;96217.25;5021763;28;20198;-83
2022/08/08 08:08:05;;;;;;;2.05;1.73;;;;;;;24.59;34.36;96215.47;5025176;28;20210;-83
2022/08/08 08:10:33;;;;;;;2.58;1.98;;;;;;;24.42;34.33;96217.84;5039526;28;20183;-83
2022/08/08 08:13:19;;;;;;;1.90;1.80;;;;;;;24.36;34.40;96224.03;5020806;28;20203;-84
2022/08/08 08:15:49;;;;;;;2.55;2.00;;;;;;;24.07;35.02;96232.59;5020900;28;20722;-83
2022/08/08 08:18:16;;;;;;;2.05;1.80;;;;;;;24.18;34.34;96226.59;5022848;28;20193;-83
2022/08/08 08:20:41;;;;;;;2.38;1.85;;;;;;;24.19;34.55;96225.56;5039648;28;20238;-83
2022/08/08 08:23:07;;;;;;;3.88;1.85;;;;;;;23.90;34.46;96237.63;5021004;28;20280;-83
2022/08/08 08:25:32;;;;;;;2.53;1.70;;;;;;;24.08;34.40;96228.94;5023248;28;20276;-83
2022/08/08 08:27:57;;;;;;;3.83;1.77;;;;;;;24.42;33.79;96225.81;5023395;28;20182;-83
2022/08/08 08:30:25;;;;;;;1.88;1.77;;;;;;;24.32;34.13;96235.31;5021044;28;20190;-83
2022/08/08 08:32:50;;;;;;;2.60;1.63;;;;;;;24.52;33.39;96235.94;5022432;28;20190;-83
2022/08/08 08:35:16;;;;;;;3.45;1.90;;;;;;;24.49;32.50;96237.19;5038976;28;20175;-83
2022/08/08 08:37:41;;;;;;;2.88;2.00;;;;;;;24.78;32.66;96230.38;5023677;28;20550;-84
2022/08/08 08:40:07;;;;;;;3.25;2.00;;;;;;;24.17;33.30;96233.75;5025017;28;20197;-83
2022/08/08 08:42:33;;;;;;;3.65;2.10;;;;;;;23.93;33.80;96239.84;5038634;28;20752;-83
2022/08/08 08:45:00;;;;;;;4.75;1.88;;;;;;;24.54;33.44;96242.66;5021053;28;20703;-83
2022/08/08 08:47:25;;;;;;;1.80;1.70;;;;;;;24.48;33.09;96234.75;5022310;28;20581;-83
2022/08/08 08:49:50;;;;;;;2.05;1.77;;;;;;;24.29;33.14;96228.53;5022097;28;20200;-83
2022/08/08 08:52:16;;;;;;;2.95;1.70;;;;;;;24.25;32.82;96227.38;5020490;28;20191;-83
2022/08/08 08:54:42;;;;;;;1.98;1.77;;;;;;;24.23;33.59;96221.47;5016263;28;20199;-83
2022/08/08 08:57:08;;;;;;;1.90;1.70;;;;;;;24.64;33.00;96218.25;5021475;28;20601;-83
2022/08/08 08:59:34;;;;;;;4.65;1.75;;;;;;;24.47;32.47;96223.34;5039147;28;20218;-83
2022/08/08 09:02:00;;;;;;;2.53;1.90;;;;;;;24.51;33.67;96226.34;5019868;28;20281;-83
2022/08/08 09:04:27;;;;;;;2.50;1.65;;;;;;;24.75;31.89;96224.69;5017049;28;20265;-83
2022/08/08 09:06:52;;;;;;;3.22;1.88;;;;;;;24.44;32.76;96236.22;5035218;28;20182;-83
2022/08/08 09:09:28;;;;;;;3.17;1.58;;;;;;;24.62;32.23;96228.28;5019100;28;20178;-84
2022/08/08 09:11:54;;;;;;;2.55;1.90;;;;;;;24.63;32.63;96232.56;5027487;28;20232;-83
2022/08/08 09:14:24;;;;;;;3.65;1.60;;;;;;;24.50;32.48;96233.50;5015826;28;20211;-83
2022/08/08 09:16:50;;;;;;;1.80;1.50;;;;;;;24.90;30.73;96225.13;5020498;28;20210;-83
2022/08/08 09:19:16;;;;;;;1.88;1.27;;;;;;;25.45;29.61;96232.31;5024908;28;20190;-83
2022/08/08 09:21:42;;;;;;;1.73;1.60;;;;;;;25.68;30.06;96229.75;5023550;28;20225;-82
2022/08/08 09:24:08;;;;;;;2.85;1.58;;;;;;;26.01;29.63;96236.47;5029385;28;20306;-84
2022/08/08 09:26:52;;;;;;;1.85;1.50;;;;;;;25.72;28.93;96230.97;5018681;28;20541;-83
2022/08/08 09:29:22;;;;;;;2.65;1.48;;;;;;;25.86;28.28;96231.56;5022008;28;20213;-83
2022/08/08 09:31:51;;;;;;;1.73;1.50;;;;;;;25.66;26.63;96235.28;5018066;28;20542;-83
2022/08/08 09:34:18;;;;;;;2.65;1.40;;;;;;;25.31;27.94;96236.97;5020391;28;20206;-83
2022/08/08 09:36:45;;;;;;;1.55;1.30;;;;;;;25.61;27.31;96234.34;5022023;28;20261;-83
2022/08/08 09:39:12;;;;;;;2.05;1.08;;;;;;;24.97;26.78;96235.69;5036827;28;20202;-83
2022/08/08 09:41:39;;;;;;;3.67;1.20;;;;;;;25.29;26.62;96233.75;5019545;28;20203;-82
2022/08/08 09:44:45;;;;;;;1.40;1.20;;;;;;;25.08;27.63;96227.81;5023364;28;20205;-83
2022/08/08 09:47:13;;;;;;;1.30;1.20;;;;;;;25.09;27.84;96241.91;5024198;28;20892;-82
2022/08/08 09:49:38;;;;;;;1.80;1.30;;;;;;;25.51;26.37;96234.06;5028675;28;20360;-83
2022/08/08 09:52:04;;;;;;;3.95;1.20;;;;;;;25.63;25.61;96238.41;5021361;28;20174;-82
2022/08/08 09:54:35;;;;;;;1.48;1.00;;;;;;;25.28;25.52;96234.78;5022427;28;20198;-82
2022/08/08 09:57:02;;;;;;;1.50;1.10;;;;;;;25.58;25.98;96240.09;5022322;28;20190;-83
2022/08/08 09:59:30;;;;;;;2.40;1.30;;;;;;;25.47;25.92;96230.25;5021033;28;20194;-83
2022/08/08 10:01:58;;;;;;;1.65;1.30;;;;;;;25.54;25.72;96239.75;5015547;28;20253;-83
2022/08/08 10:04:25;;;;;;;2.00;1.00;;;;;;;25.87;26.08;96234.00;5019873;28;20198;-84
2022/08/08 10:06:52;;;;;;;6.65;1.20;;;;;;;26.15;26.04;96236.06;5023452;28;20232;-83
2022/08/08 10:09:32;;;;;;;2.53;1.25;;;;;;;26.10;26.52;96232.44;5035498;28;20206;-83
2022/08/08 10:12:01;;;;;;;2.75;1.83;;;;;;;26.24;26.67;96232.00;5023869;28;20175;-83
2022/08/08 10:14:34;;;;;;;2.95;1.40;;;;;;;25.88;27.13;96229.47;5036456;28;20202;-83
2022/08/08 10:17:05;;;;;;;2.03;1.50;;;;;;;26.19;26.34;96234.53;5020875;28;20643;-83
2022/08/08 10:19:38;;;;;;;1.73;1.30;;;;;;;25.71;26.91;96232.00;5022713;28;20195;-83
2022/08/08 10:22:04;;;;;;;2.00;1.50;;;;;;;25.70;27.40;96228.50;5015968;28;20245;-83
2022/08/08 10:24:32;;;;;;;2.78;1.50;;;;;;;25.98;26.80;96219.13;5021601;28;20290;-83
2022/08/08 10:27:02;;;;;;;2.25;1.35;;;;;;;25.76;27.14;96212.69;5022434;28;20236;-83
2022/08/08 10:29:54;;;;;;;2.78;1.35;;;;;;;25.71;27.03;96218.69;5021564;28;20651;-83
2022/08/08 10:32:34;;;;;;;4.30;1.42;;;;;;;25.55;27.29;96229.94;5035639;28;20206;-83
2022/08/08 10:35:01;;;;;;;5.22;1.65;;;;;;;25.44;27.00;96228.81;5018641;28;20206;-83
2022/08/08 10:37:32;;;;;;;4.60;1.30;;;;;;;25.96;25.78;96224.66;5019521;28;20194;-83
2022/08/08 10:40:00;;;;;;;3.17;1.20;;;;;;;26.02;26.42;96222.94;5016459;28;20195;-83
2022/08/08 10:42:34;;;;;;;1.30;0.95;;;;;;;25.87;25.81;96230.53;5019957;28;20222;-83
2022/08/08 10:45:02;;;;;;;1.60;1.17;;;;;;;25.52;25.71;96220.53;5016089;28;20206;-83
2022/08/08 10:47:27;;;;;;;1.20;1.10;;;;;;;25.67;26.19;96217.47;5020154;28;20643;-83
2022/08/08 10:50:01;;;;;;;1.60;1.40;;;;;;;26.00;26.14;96214.38;5023124;28;20194;-83
2022/08/08 10:52:35;;;;;;;1.42;1.33;;;;;;;26.55;25.93;96224.75;5021853;28;20183;-83
2022/08/08 10:55:10;;;;;;;2.47;1.25;;;;;;;26.81;25.22;96218.16;5015615;28;20306;-83
2022/08/08 10:57:37;;;;;;;2.53;1.00;;;;;;;26.85;25.78;96213.97;5020698;28;20729;-84
2022/08/08 11:00:04;;;;;;;1.15;1.05;;;;;;;26.34;24.75;96217.31;5020965;28;20178;-84
2022/08/08 11:02:31;;;;;;;1.85;1.20;;;;;;;26.35;24.91;96233.06;5036896;28;20211;-83
2022/08/08 11:04:58;;;;;;;2.13;1.40;;;;;;;26.33;25.41;96221.84;5018969;28;20200;-83
2022/08/08 11:07:28;;;;;;;2.17;1.60;;;;;;;26.49;24.95;96215.84;5021463;28;20217;-83
2022/08/08 11:09:54;;;;;;;1.45;1.35;;;;;;;26.50;24.93;96221.97;5037526;28;20182;-83
2022/08/08 11:12:19;;;;;;;1.45;1.35;;;;;;;26.52;25.17;96209.25;5023285;28;20726;-83
2022/08/08 11:14:49;;;;;;;2.42;1.10;;;;;;;26.70;25.96;96211.00;5025252;28;20218;-84
2022/08/08 11:17:17;;;;;;;2.03;1.33;;;;;;;26.81;25.11;96213.63;5025872;28;20178;-83
2022/08/08 11:19:43;;;;;;;1.88;1.35;;;;;;;26.85;24.78;96213.97;5035645;28;20211;-83
2022/08/08 11:22:13;;;;;;;2.17;1.58;;;;;;;27.12;25.07;96208.16;5024053;28;20226;-83
2022/08/08 11:24:38;;;;;;;1.77;1.40;;;;;;;27.45;24.44;96208.28;5022139;28;20202;-83
2022/08/08 11:27:04;;;;;;;1.38;1.27;;;;;;;27.26;24.58;96209.53;5021789;28;20579;-83
2022/08/08 11:29:29;;;;;;;2.45;1.50;;;;;;;27.41;24.65;96209.03;5023459;28;20758;-82
2022/08/08 11:31:55;;;;;;;1.80;1.48;;;;;;;27.48;24.86;96209.69;5030473;28;20270;-83
2022/08/08 11:34:24;;;;;;;1.85;1.63;;;;;;;27.33;24.91;96205.69;5021602;28;20572;-83
2022/08/08 11:36:50;;;;;;;1.48;1.38;;;;;;;27.48;24.91;96210.50;5023073;28;20587;-84
2022/08/08 11:39:16;;;;;;;3.25;1.45;;;;;;;27.01;25.59;96202.59;5031527;28;20198;-83
2022/08/08 11:41:43;;;;;;;2.70;1.48;;;;;;;27.19;26.08;96206.19;5038923;28;20251;-81
2022/08/08 11:44:10;;;;;;;2.15;1.60;;;;;;;27.47;25.38;96208.06;5046409;28;20191;-84
2022/08/08 11:46:35;;;;;;;2.13;1.75;;;;;;;27.06;25.39;96189.41;5056198;28;20213;-83
2022/08/08 11:49:03;;;;;;;2.80;1.83;;;;;;;27.17;25.77;96195.75;5064934;28;20194;-83
2022/08/08 11:51:28;;;;;;;2.17;1.80;;;;;;;27.30;26.48;96194.69;5051296;28;20325;-83
2022/08/08 11:53:53;;;;;;;1.88;1.58;;;;;;;27.73;25.60;96193.34;5038238;28;20717;-83
2022/08/08 11:56:22;;;;;;;2.13;1.55;;;;;;;27.83;25.61;96189.03;5029712;28;20186;-83
2022/08/08 11:58:49;;;;;;;3.72;1.88;;;;;;;28.01;25.68;96185.31;5026969;28;20190;-83
2022/08/08 12:01:14;;;;;;;2.05;1.70;;;;;;;28.34;24.99;96184.53;5021657;28;20235;-83
2022/08/08 12:03:46;;;;;;;2.03;1.73;;;;;;;28.23;24.92;96180.06;5023058;28;20237;-83